Filer, Idaho
Current Conditions -  °F | °C
As of 9:10 AM on Wednesday 28 Jan 2015 (Local Time) from KTWF Reporting Station
Scattered Clouds Scattered Clouds  
Wind Chill: 36°   Ceiling: Unl
Heat Index: 41°   Visibility: 10mi
Dew Point: 36°   Wind: 7mph
Humidity: 82%   Direction: 220°SW
Pressure: 30.29"   Gusts: NA
Location:  42.57°N, 114.61°W
Report Text: KTWF 281610Z 22006KT 10SM SCT024 05/02 A3029 RMK AO2 T00500022
Loading
Personal Weather Stations






























Interactive Weather Map New forecast layout! Learn more

10-Day Weather Forecast

Advertisements
Track Severe Weather on mobile